Archival Weather

Heathrow

Heathrow, United Kingdom (EGLL)

Report from: Thursday, June 23, 2022 7:20 PM BST
Current time: Tuesday, August 16, 2022 7:31 AM BST

Current weather
Weather history
Weather forecast

Temperature23.0°C (73.4°F)
Dew point15.0°C (59.0°F)
Winds 11 kts (5.7 m/s, 12.7 mph) South-Southwest (200°)
Visibility6.2 mi. (10 km)
Altimeter29.74 in.Hg (1007 mB)
Relative humidity61 %
Density altitude1,377 ft. (420 m)
Remarks Fully automated report
Corrected report
No significant changes expected in the next two hours
Flight conditions Visual Meteorological Conditions
Raw dataCOR EGLL 231820Z AUTO 20011KT 9999 //////CB 23/15 Q1007 NOSIG
An error has occurred. This application may no longer respond until reloaded. Reload 🗙